Terminal Aerodrome Forecast
Issued by NWS

Home | Current Version | Previous Version | Text Only | Print | Product List | Glossary On
Versions: 1 2 3 4 5 6 7 8 9 10 11 12 13 14 15 16 17 18 19 20 21 22 23 24 25 26 27 28 29
000
FTAK31 PANC 110259 AAA
TAFACD
TAF AMD
PACD 110259Z 1103/1124 04010KT P6SM -RA BKN035
      TEMPO 1103/1107 BKN025
     FM110700 07010KT 6SM BR VCSH SCT007 BKN025
     FM111200 09011KT 6SM -SHRA SCT020 OVC050=

USA.gov is the U.S. government's official web portal to all federal, state and local government web resources and services.